createdAt,value
2022-08-17T00:00:13.608Z,68.99
2022-08-17T00:03:06.421Z,68.67
2022-08-17T00:05:46.166Z,69.31
2022-08-17T00:08:14.943Z,70.21
2022-08-17T00:10:43.618Z,70.89
2022-08-17T00:13:18.724Z,70.64
2022-08-17T00:15:46.096Z,69.21
2022-08-17T00:19:01.685Z,69.12
2022-08-17T00:21:01.496Z,69.59
2022-08-17T00:23:28.950Z,70.32
2022-08-17T00:25:56.324Z,71.23
2022-08-17T00:28:23.677Z,71.11
2022-08-17T00:30:55.437Z,69.77
2022-08-17T00:33:27.457Z,69.31
2022-08-17T00:35:55.011Z,69.83
2022-08-17T00:38:22.877Z,70.35
2022-08-17T00:40:55.691Z,71.14
2022-08-17T00:43:39.445Z,70.90
2022-08-17T00:46:11.580Z,69.51
2022-08-17T00:48:39.483Z,69.41
2022-08-17T00:51:12.497Z,69.87
2022-08-17T00:53:44.371Z,70.51
2022-08-17T00:56:15.061Z,71.39
2022-08-17T00:58:42.597Z,71.14
2022-08-17T01:01:09.935Z,69.85
2022-08-17T01:03:37.646Z,69.32
2022-08-17T01:06:05.672Z,69.63
2022-08-17T01:08:34.334Z,70.42
2022-08-17T01:11:02.639Z,71.22
2022-08-17T01:13:40.693Z,70.77
2022-08-17T01:16:16.107Z,69.45
2022-08-17T01:18:44.872Z,69.12
2022-08-17T01:21:17.775Z,69.62
2022-08-17T01:23:45.436Z,70.39
2022-08-17T01:26:13.128Z,71.14
2022-08-17T01:28:53.934Z,70.92
2022-08-17T01:31:26.335Z,69.37
2022-08-17T01:33:53.637Z,69.06
2022-08-17T01:36:21.076Z,69.41
2022-08-17T01:38:48.055Z,70.20
2022-08-17T01:41:16.487Z,70.88
2022-08-17T01:43:52.817Z,70.76
2022-08-17T01:46:27.230Z,69.52
2022-08-17T01:48:55.190Z,69.23
2022-08-17T01:51:25.307Z,69.80
2022-08-17T01:53:54.229Z,70.51
2022-08-17T01:56:23.152Z,71.38
2022-08-17T01:58:50.865Z,71.10
2022-08-17T02:01:30.689Z,69.62
2022-08-17T02:04:01.063Z,69.42
2022-08-17T02:06:52.410Z,69.78
2022-08-17T02:09:23.374Z,70.69
2022-08-17T02:11:51.898Z,71.46
2022-08-17T02:14:21.733Z,71.29
2022-08-17T02:16:49.370Z,69.66
2022-08-17T02:19:17.254Z,69.30
2022-08-17T02:21:46.647Z,69.83
2022-08-17T02:24:17.647Z,70.60
2022-08-17T02:27:05.324Z,71.78
2022-08-17T02:29:32.641Z,71.20
2022-08-17T02:32:01.950Z,69.92
2022-08-17T02:34:30.115Z,69.59
2022-08-17T02:36:57.519Z,70.03
2022-08-17T02:39:24.637Z,70.70
2022-08-17T02:42:02.626Z,71.51
2022-08-17T02:44:38.794Z,71.05
2022-08-17T02:47:08.194Z,69.78
2022-08-17T02:49:37.264Z,69.48
2022-08-17T02:52:06.693Z,69.87
2022-08-17T02:54:42.277Z,70.58
2022-08-17T02:57:10.406Z,71.33
2022-08-17T02:59:45.444Z,70.82
2022-08-17T03:02:15.660Z,69.31
2022-08-17T03:04:43.730Z,69.32
2022-08-17T03:07:11.990Z,69.75
2022-08-17T03:09:39.454Z,70.36
2022-08-17T03:12:12.946Z,71.21
2022-08-17T03:14:41.884Z,70.88
2022-08-17T03:17:17.043Z,69.65
2022-08-17T03:19:45.133Z,69.16
2022-08-17T03:22:34.754Z,69.58
2022-08-17T03:24:59.825Z,70.33
2022-08-17T03:27:27.433Z,71.16
2022-08-17T03:29:55.256Z,71.12
2022-08-17T03:32:22.396Z,69.81
2022-08-17T03:34:49.837Z,69.47
2022-08-17T03:37:17.101Z,69.88
2022-08-17T03:39:44.266Z,70.38
2022-08-17T03:42:32.553Z,71.21
2022-08-17T03:45:00.573Z,70.25
2022-08-17T03:47:46.400Z,69.53
2022-08-17T03:50:33.100Z,69.17
2022-08-17T03:53:19.667Z,69.68
2022-08-17T03:56:05.275Z,70.61
2022-08-17T03:58:32.638Z,71.33
2022-08-17T04:01:00.040Z,70.77
2022-08-17T04:03:27.325Z,69.31
2022-08-17T04:05:54.975Z,69.07
2022-08-17T04:08:22.335Z,69.17
2022-08-17T04:10:49.831Z,69.74
2022-08-17T04:13:24.770Z,70.44
2022-08-17T04:15:53.257Z,70.46
2022-08-17T04:18:21.006Z,69.20
2022-08-17T04:20:48.325Z,68.97
2022-08-17T04:23:16.928Z,69.16
2022-08-17T04:25:46.820Z,70.06
2022-08-17T04:28:15.846Z,70.93
2022-08-17T04:30:45.344Z,70.35
2022-08-17T04:33:15.585Z,69.03
2022-08-17T04:36:04.173Z,68.84
2022-08-17T04:38:36.046Z,69.06
2022-08-17T04:41:21.637Z,69.70
2022-08-17T04:43:56.096Z,70.73
2022-08-17T04:46:26.146Z,70.19
2022-08-17T04:48:55.948Z,68.87
2022-08-17T04:51:30.814Z,68.77
2022-08-17T04:54:03.059Z,69.18
2022-08-17T04:56:31.179Z,69.82
2022-08-17T04:59:10.082Z,70.38
2022-08-17T05:01:38.766Z,69.94
2022-08-17T05:04:21.493Z,68.71
2022-08-17T05:06:55.792Z,68.29
2022-08-17T05:09:23.048Z,68.71
2022-08-17T05:11:51.626Z,69.55
2022-08-17T05:14:19.703Z,70.29
2022-08-17T05:16:49.401Z,69.92
2022-08-17T05:19:16.506Z,68.74
2022-08-17T05:21:44.565Z,68.24
2022-08-17T05:24:38.348Z,68.55
2022-08-17T05:27:06.222Z,69.53
2022-08-17T05:29:35.900Z,69.61
2022-08-17T05:32:39.439Z,69.45
2022-08-17T05:35:00.441Z,68.34
2022-08-17T05:37:28.298Z,67.97
2022-08-17T05:39:55.562Z,68.49
2022-08-17T05:42:24.207Z,69.01
2022-08-17T05:44:51.610Z,69.89
2022-08-17T05:47:18.791Z,69.66
2022-08-17T05:49:48.977Z,68.45
2022-08-17T05:52:20.124Z,68.13
2022-08-17T05:55:14.672Z,68.25
2022-08-17T05:57:57.167Z,69.10
2022-08-17T06:00:56.754Z,69.72
2022-08-17T06:03:41.085Z,70.51
2022-08-17T06:06:31.408Z,69.30
2022-08-17T06:09:33.660Z,67.85
2022-08-17T06:12:24.733Z,68.46
2022-08-17T06:15:04.935Z,68.89
2022-08-17T06:17:32.312Z,69.57
2022-08-17T06:20:03.003Z,70.37
2022-08-17T06:22:33.802Z,69.93
2022-08-17T06:25:10.045Z,68.52
2022-08-17T06:27:59.843Z,67.99
2022-08-17T06:30:28.920Z,68.43
2022-08-17T06:33:22.581Z,68.99
2022-08-17T06:36:16.115Z,69.79
2022-08-17T06:38:58.401Z,69.10
2022-08-17T06:42:02.490Z,68.10
2022-08-17T06:44:50.154Z,67.83
2022-08-17T06:47:30.220Z,68.66
2022-08-17T06:50:03.390Z,69.27
2022-08-17T06:52:45.883Z,70.10
2022-08-17T06:55:21.404Z,69.45
2022-08-17T06:57:53.981Z,68.08
2022-08-17T07:00:24.064Z,67.87
2022-08-17T07:03:00.200Z,68.12
2022-08-17T07:05:34.020Z,68.70
2022-08-17T07:08:09.356Z,69.01
2022-08-17T07:10:45.776Z,68.46
2022-08-17T07:13:44.536Z,67.62
2022-08-17T07:16:28.451Z,67.32
2022-08-17T07:18:56.573Z,67.68
2022-08-17T07:21:42.475Z,68.27
2022-08-17T07:24:45.301Z,69.48
2022-08-17T07:27:20.607Z,68.69
2022-08-17T07:30:10.087Z,67.07
2022-08-17T07:32:48.955Z,66.85
2022-08-17T07:35:16.157Z,66.89
2022-08-17T07:37:54.187Z,67.35
2022-08-17T07:40:27.644Z,67.88
2022-08-17T07:43:12.562Z,67.70
2022-08-17T07:46:12.396Z,66.82
2022-08-17T07:48:41.117Z,66.98
2022-08-17T07:51:20.695Z,67.33
2022-08-17T07:53:48.090Z,68.06
2022-08-17T07:56:42.100Z,68.44
2022-08-17T07:59:23.701Z,67.90
2022-08-17T08:01:58.292Z,67.10
2022-08-17T08:05:00.081Z,66.25
2022-08-17T08:07:26.973Z,66.57
2022-08-17T08:10:10.827Z,67.48
2022-08-17T08:12:42.911Z,68.63
2022-08-17T08:15:18.980Z,67.75
2022-08-17T08:17:57.823Z,66.90
2022-08-17T08:20:51.743Z,66.57
2022-08-17T08:23:32.897Z,66.57
2022-08-17T08:26:03.173Z,67.71
2022-08-17T08:29:01.607Z,68.35
2022-08-17T08:31:48.229Z,68.06
2022-08-17T08:35:01.406Z,66.42
2022-08-17T08:37:55.743Z,65.94
2022-08-17T08:40:35.720Z,66.27
2022-08-17T08:43:36.402Z,67.49
2022-08-17T08:46:28.299Z,68.21
2022-08-17T08:50:01.264Z,66.96
2022-08-17T08:52:51.809Z,66.03
2022-08-17T08:55:50.408Z,65.40
2022-08-17T08:58:32.212Z,65.69
2022-08-17T09:01:29.541Z,66.57
2022-08-17T09:04:24.238Z,67.43
2022-08-17T09:06:58.871Z,66.57
2022-08-17T09:09:46.226Z,65.33
2022-08-17T09:12:13.842Z,65.14
2022-08-17T09:14:49.507Z,65.10
2022-08-17T09:17:37.771Z,65.05
2022-08-17T09:20:30.332Z,65.62
2022-08-17T09:23:28.742Z,66.19
2022-08-17T09:26:01.141Z,65.67
2022-08-17T09:28:32.227Z,65.01
2022-08-17T09:31:04.368Z,64.32
2022-08-17T09:33:32.021Z,64.55
2022-08-17T09:36:29.632Z,65.01
2022-08-17T09:39:02.287Z,65.03
2022-08-17T09:41:51.039Z,65.37
2022-08-17T09:44:39.984Z,64.90
2022-08-17T09:47:46.686Z,63.03
2022-08-17T09:50:20.363Z,62.68
2022-08-17T09:53:08.208Z,63.16
2022-08-17T09:55:50.168Z,64.95
2022-08-17T09:58:29.449Z,65.48
2022-08-17T10:01:08.251Z,65.41
2022-08-17T10:03:52.513Z,63.93
2022-08-17T10:06:23.366Z,62.74
2022-08-17T10:09:08.349Z,61.60
2022-08-17T10:12:06.332Z,60.53
2022-08-17T10:14:44.016Z,61.25
2022-08-17T10:17:16.702Z,62.46
2022-08-17T10:19:47.331Z,63.32
2022-08-17T10:22:51.201Z,63.94
2022-08-17T10:25:54.004Z,62.42
2022-08-17T10:28:28.791Z,60.70
2022-08-17T10:33:47.743Z,61.96
2022-08-17T10:36:23.466Z,62.74
2022-08-17T10:39:12.351Z,63.66
2022-08-17T10:41:43.659Z,64.23
2022-08-17T10:44:39.482Z,64.10
2022-08-17T10:47:07.987Z,63.20
2022-08-17T10:49:37.141Z,62.00
2022-08-17T10:52:20.012Z,62.17
2022-08-17T10:54:50.624Z,62.87
2022-08-17T10:57:42.027Z,64.03
2022-08-17T11:00:15.963Z,64.73
2022-08-17T11:05:44.084Z,66.39
2022-08-17T11:08:49.817Z,64.63
2022-08-17T11:11:38.556Z,62.32
2022-08-17T11:14:30.625Z,61.92
2022-08-17T11:17:03.782Z,62.50
2022-08-17T11:19:53.540Z,63.21
2022-08-17T11:22:42.427Z,64.76
2022-08-17T11:25:20.312Z,66.08
2022-08-17T11:27:53.935Z,65.02
2022-08-17T11:30:57.238Z,63.81
2022-08-17T11:33:54.058Z,63.81
2022-08-17T11:36:31.666Z,64.62
2022-08-17T11:41:27.503Z,65.79
2022-08-17T11:44:13.499Z,66.15
2022-08-17T11:47:07.877Z,66.88
2022-08-17T11:50:22.453Z,66.81
2022-08-17T11:52:51.638Z,65.66
2022-08-17T11:55:38.469Z,65.28
2022-08-17T11:58:29.880Z,66.37
2022-08-17T12:00:59.567Z,66.99
2022-08-17T12:03:33.085Z,67.32
2022-08-17T12:06:17.693Z,66.63
2022-08-17T12:08:55.332Z,65.14
2022-08-17T12:11:58.617Z,65.43
2022-08-17T12:14:20.160Z,65.85
2022-08-17T12:17:14.156Z,66.59
2022-08-17T12:19:53.464Z,67.03
2022-08-17T12:22:29.438Z,66.39
2022-08-17T12:25:05.124Z,66.27
2022-08-17T12:28:05.682Z,65.89
2022-08-17T12:30:21.493Z,66.51
2022-08-17T12:32:48.963Z,67.23
2022-08-17T12:35:35.630Z,68.05
2022-08-17T12:38:03.779Z,68.01
2022-08-17T12:40:32.221Z,66.44
2022-08-17T12:43:01.627Z,66.45
2022-08-17T12:45:31.001Z,66.82
2022-08-17T12:48:08.373Z,66.97
2022-08-17T12:50:37.277Z,67.41
2022-08-17T12:53:14.509Z,67.96
2022-08-17T12:55:43.296Z,67.62
2022-08-17T12:58:14.518Z,66.25
2022-08-17T13:00:47.629Z,65.98
2022-08-17T13:03:20.271Z,66.35
2022-08-17T13:05:59.254Z,67.04
2022-08-17T13:08:32.273Z,67.92
2022-08-17T13:11:21.384Z,69.22
2022-08-17T13:13:56.543Z,69.70
2022-08-17T13:16:25.710Z,68.38
2022-08-17T13:19:05.960Z,68.77
2022-08-17T13:21:36.047Z,67.94
2022-08-17T13:24:07.892Z,68.78
2022-08-17T13:26:49.412Z,69.14
2022-08-17T13:29:25.372Z,67.38
2022-08-17T13:31:56.380Z,65.56
2022-08-17T13:34:39.916Z,65.41
2022-08-17T13:37:30.226Z,66.07
2022-08-17T13:40:09.715Z,66.32
2022-08-17T13:42:53.844Z,67.49
2022-08-17T13:45:36.315Z,65.21
2022-08-17T13:48:23.952Z,64.13
2022-08-17T13:50:57.872Z,63.89
2022-08-17T13:53:52.097Z,64.76
2022-08-17T13:56:37.453Z,65.32
2022-08-17T13:59:09.238Z,66.63
2022-08-17T14:01:42.091Z,65.64
2022-08-17T14:04:21.114Z,63.75
2022-08-17T14:06:59.744Z,63.95
2022-08-17T14:09:33.580Z,65.41
2022-08-17T14:12:06.614Z,65.92
2022-08-17T14:14:34.443Z,65.99
2022-08-17T14:17:01.706Z,66.79
2022-08-17T14:19:31.598Z,67.45
2022-08-17T14:21:59.149Z,65.32
2022-08-17T14:24:28.841Z,64.55
2022-08-17T14:26:56.352Z,64.74
2022-08-17T14:29:25.449Z,64.55
2022-08-17T14:31:54.782Z,64.71
2022-08-17T14:34:23.304Z,64.31
2022-08-17T14:36:50.780Z,64.88
2022-08-17T14:39:18.227Z,64.05
2022-08-17T14:41:45.545Z,62.62
2022-08-17T14:44:13.279Z,62.45
2022-08-17T14:46:41.041Z,62.72
2022-08-17T14:49:08.961Z,63.48
2022-08-17T14:51:43.847Z,64.19
2022-08-17T14:54:34.268Z,64.99
2022-08-17T14:57:08.645Z,65.90
2022-08-17T14:59:49.226Z,64.73
2022-08-17T15:02:29.901Z,63.45
2022-08-17T15:05:04.693Z,63.13
2022-08-17T15:07:32.401Z,63.34
2022-08-17T15:10:01.693Z,62.58
2022-08-17T15:12:32.698Z,63.44
2022-08-17T15:15:04.709Z,63.31
2022-08-17T15:17:44.837Z,64.21
2022-08-17T15:20:19.115Z,62.80
2022-08-17T15:22:46.901Z,61.33
2022-08-17T15:25:14.037Z,60.57
2022-08-17T15:27:42.301Z,61.03
2022-08-17T15:30:10.223Z,61.89
2022-08-17T15:32:38.555Z,62.76
2022-08-17T15:35:06.663Z,62.09
2022-08-17T15:37:33.927Z,62.64
2022-08-17T15:40:01.310Z,63.49
2022-08-17T15:42:29.402Z,62.69
2022-08-17T15:44:56.665Z,61.53
2022-08-17T15:47:25.165Z,60.73
2022-08-17T15:49:57.899Z,61.16
2022-08-17T15:52:29.709Z,61.13
2022-08-17T15:54:58.961Z,61.39
2022-08-17T15:57:26.947Z,61.97
2022-08-17T15:59:58.440Z,62.63
2022-08-17T16:03:44.914Z,62.60
2022-08-17T16:05:17.238Z,63.58
2022-08-17T16:07:46.059Z,62.12
2022-08-17T16:10:18.649Z,60.12
2022-08-17T16:12:47.394Z,59.74
2022-08-17T16:15:15.385Z,59.74
2022-08-17T16:17:42.747Z,60.55
2022-08-17T16:20:19.601Z,60.76
2022-08-17T16:22:48.441Z,61.40
2022-08-17T16:25:21.324Z,61.03
2022-08-17T16:27:50.489Z,61.27
2022-08-17T16:30:18.179Z,62.84
2022-08-17T16:32:45.815Z,61.97
2022-08-17T16:35:18.478Z,60.53
2022-08-17T16:37:45.869Z,59.77
2022-08-17T16:40:16.723Z,60.40
2022-08-17T16:42:45.397Z,60.80
2022-08-17T16:45:16.828Z,60.96
2022-08-17T16:47:45.781Z,61.69
2022-08-17T16:50:14.783Z,62.75
2022-08-17T16:52:42.769Z,62.78
2022-08-17T16:55:13.321Z,63.19
2022-08-17T16:57:47.505Z,62.81
2022-08-17T17:00:22.752Z,60.77
2022-08-17T17:02:50.908Z,60.51
2022-08-17T17:06:03.663Z,60.69
2022-08-17T17:08:43.609Z,61.64
2022-08-17T17:11:14.653Z,62.40
2022-08-17T17:13:58.599Z,63.24
2022-08-17T17:16:29.005Z,63.35
2022-08-17T17:19:08.128Z,64.58
2022-08-17T17:21:51.962Z,64.37
2022-08-17T17:24:29.939Z,63.04
2022-08-17T17:27:07.339Z,63.07
2022-08-17T17:29:48.276Z,63.62
2022-08-17T17:32:31.155Z,64.36
2022-08-17T17:35:04.662Z,65.14
2022-08-17T17:37:33.567Z,66.01
2022-08-17T17:40:09.555Z,65.67
2022-08-17T17:42:36.770Z,64.49
2022-08-17T17:45:24.507Z,64.25
2022-08-17T17:47:52.789Z,64.68
2022-08-17T17:50:21.536Z,65.29
2022-08-17T17:52:52.562Z,66.02
2022-08-17T17:55:19.833Z,66.81
2022-08-17T17:58:20.997Z,66.71
2022-08-17T18:00:50.974Z,65.49
2022-08-17T18:03:33.162Z,65.33
2022-08-17T18:06:13.619Z,65.99
2022-08-17T18:08:53.384Z,66.57
2022-08-17T18:11:45.224Z,67.27
2022-08-17T18:14:33.562Z,68.55
2022-08-17T18:17:01.308Z,67.48
2022-08-17T18:19:29.455Z,66.27
2022-08-17T18:22:14.825Z,66.23
2022-08-17T18:24:44.060Z,66.47
2022-08-17T18:27:38.778Z,67.28
2022-08-17T18:30:18.513Z,68.02
2022-08-17T18:32:46.687Z,68.83
2022-08-17T18:35:14.409Z,68.27
2022-08-17T18:37:45.166Z,66.87
2022-08-17T18:40:23.540Z,66.55
2022-08-17T18:42:50.612Z,66.95
2022-08-17T18:45:30.907Z,67.47
2022-08-17T18:47:58.133Z,68.36
2022-08-17T18:50:27.634Z,69.15
2022-08-17T18:52:56.203Z,69.13
2022-08-17T18:55:24.914Z,67.63
2022-08-17T18:58:13.411Z,67.39
2022-08-17T19:00:42.416Z,67.78
2022-08-17T19:03:16.099Z,68.13
2022-08-17T19:05:48.424Z,68.94
2022-08-17T19:08:28.538Z,69.88
2022-08-17T19:11:02.223Z,69.11
2022-08-17T19:13:32.841Z,67.67
2022-08-17T19:16:15.268Z,67.48
2022-08-17T19:18:49.477Z,67.87
2022-08-17T19:21:34.927Z,68.57
2022-08-17T19:24:11.721Z,69.59
2022-08-17T19:26:50.701Z,69.05
2022-08-17T19:29:45.453Z,67.95
2022-08-17T19:32:12.906Z,67.84
2022-08-17T19:34:44.180Z,68.29
2022-08-17T19:37:21.671Z,69.18
2022-08-17T19:40:04.719Z,70.12
2022-08-17T19:42:42.579Z,69.53
2022-08-17T19:45:21.292Z,68.40
2022-08-17T19:48:04.758Z,68.30
2022-08-17T19:50:54.305Z,68.81
2022-08-17T19:53:30.099Z,69.45
2022-08-17T19:56:35.344Z,70.35
2022-08-17T19:59:23.135Z,69.29
2022-08-17T20:02:09.217Z,68.30
2022-08-17T20:04:40.850Z,68.38
2022-08-17T20:07:19.585Z,69.01
2022-08-17T20:09:55.307Z,69.69
2022-08-17T20:12:38.516Z,70.39
2022-08-17T20:15:23.117Z,69.80
2022-08-17T20:17:50.393Z,68.33
2022-08-17T20:20:39.295Z,68.23
2022-08-17T20:23:18.475Z,68.98
2022-08-17T20:26:18.534Z,69.57
2022-08-17T20:29:37.655Z,70.33
2022-08-17T20:32:22.416Z,68.96
2022-08-17T20:34:51.517Z,68.30
2022-08-17T20:37:18.649Z,68.69
2022-08-17T20:39:52.749Z,69.18
2022-08-17T20:42:20.539Z,70.10
2022-08-17T20:44:53.099Z,70.79
2022-08-17T20:47:55.091Z,70.35
2022-08-17T20:50:33.587Z,68.81
2022-08-17T20:53:09.184Z,68.81
2022-08-17T20:55:51.894Z,69.28
2022-08-17T20:58:29.858Z,70.08
2022-08-17T21:01:01.622Z,70.86
2022-08-17T21:03:49.976Z,70.41
2022-08-17T21:06:18.067Z,69.09
2022-08-17T21:09:18.875Z,68.79
2022-08-17T21:12:03.756Z,69.55
2022-08-17T21:14:58.145Z,70.15
2022-08-17T21:17:46.856Z,71.21
2022-08-17T21:20:22.398Z,70.12
2022-08-17T21:22:57.868Z,68.98
2022-08-17T21:25:28.372Z,68.93
2022-08-17T21:28:14.433Z,69.37
2022-08-17T21:30:48.226Z,70.29
2022-08-17T21:33:25.849Z,71.07
2022-08-17T21:36:16.175Z,70.44
2022-08-17T21:38:57.093Z,68.58
2022-08-17T21:41:34.269Z,68.63
2022-08-17T21:44:11.531Z,69.15
2022-08-17T21:46:42.941Z,70.13
2022-08-17T21:49:16.843Z,70.96
2022-08-17T21:51:51.678Z,70.53
2022-08-17T21:54:35.637Z,68.84
2022-08-17T21:57:04.336Z,68.70
2022-08-17T21:59:37.844Z,69.25
2022-08-17T22:02:07.963Z,69.95
2022-08-17T22:04:43.193Z,70.58
2022-08-17T22:07:13.219Z,70.15
2022-08-17T22:09:46.284Z,68.83
2022-08-17T22:12:21.028Z,68.39
2022-08-17T22:15:00.490Z,68.66
2022-08-17T22:17:35.989Z,69.32
2022-08-17T22:20:17.529Z,70.09
2022-08-17T22:23:12.754Z,70.02
2022-08-17T22:25:41.563Z,68.50
2022-08-17T22:28:10.179Z,68.66
2022-08-17T22:30:59.135Z,69.13
2022-08-17T22:33:36.358Z,69.96
2022-08-17T22:36:29.533Z,70.78
2022-08-17T22:38:57.865Z,69.94
2022-08-17T22:41:26.724Z,68.76
2022-08-17T22:43:54.236Z,68.65
2022-08-17T22:46:21.383Z,69.14
2022-08-17T22:48:50.456Z,69.89
2022-08-17T22:51:21.475Z,70.77
2022-08-17T22:54:14.377Z,70.39
2022-08-17T22:57:09.369Z,68.97
2022-08-17T22:59:41.711Z,68.89
2022-08-17T23:02:14.782Z,69.40
2022-08-17T23:04:47.862Z,70.05
2022-08-17T23:07:15.188Z,70.95
2022-08-17T23:09:42.916Z,70.66
2022-08-17T23:12:11.762Z,69.33
2022-08-17T23:14:45.836Z,68.97
2022-08-17T23:17:13.518Z,69.66
2022-08-17T23:19:41.031Z,70.36
2022-08-17T23:22:08.866Z,71.22
2022-08-17T23:24:45.129Z,70.94
2022-08-17T23:27:12.517Z,69.50
2022-08-17T23:29:42.141Z,68.99
2022-08-17T23:32:11.742Z,69.41
2022-08-17T23:34:39.391Z,70.29
2022-08-17T23:37:07.259Z,70.90
2022-08-17T23:39:35.457Z,71.09
2022-08-17T23:42:10.549Z,69.83
2022-08-17T23:44:38.248Z,69.32
2022-08-17T23:47:05.741Z,69.58
2022-08-17T23:49:40.551Z,70.28
2022-08-17T23:52:10.001Z,71.22
2022-08-17T23:54:43.965Z,70.97
2022-08-17T23:57:12.941Z,69.71
2022-08-17T23:59:40.820Z,69.33
